sensor_id;sensor_type;location;lat;lon;timestamp;temperature;humidity
23100;DHT22;53791;50.696;4.396;2023-03-01T00:01:33;2.10;99.90
23100;DHT22;53791;50.696;4.396;2023-03-01T00:04:01;2.10;99.90
23100;DHT22;53791;50.696;4.396;2023-03-01T00:06:28;2.00;99.90
23100;DHT22;53791;50.696;4.396;2023-03-01T00:08:56;2.00;99.90
23100;DHT22;53791;50.696;4.396;2023-03-01T00:11:27;2.10;99.90
23100;DHT22;53791;50.696;4.396;2023-03-01T00:13:56;2.10;99.90
23100;DHT22;53791;50.696;4.396;2023-03-01T00:16:30;2.10;99.90
23100;DHT22;53791;50.696;4.396;2023-03-01T00:18:59;2.00;99.90
23100;DHT22;53791;50.696;4.396;2023-03-01T00:21:27;2.00;99.90
23100;DHT22;53791;50.696;4.396;2023-03-01T00:23:55;1.90;99.90
23100;DHT22;53791;50.696;4.396;2023-03-01T00:26:24;2.00;99.90
23100;DHT22;53791;50.696;4.396;2023-03-01T00:28:52;2.00;99.90
23100;DHT22;53791;50.696;4.396;2023-03-01T00:31:23;2.00;99.90
23100;DHT22;53791;50.696;4.396;2023-03-01T00:33:56;2.00;99.90
23100;DHT22;53791;50.696;4.396;2023-03-01T00:36:26;1.90;99.90
23100;DHT22;53791;50.696;4.396;2023-03-01T00:38:54;1.90;99.90
23100;DHT22;53791;50.696;4.396;2023-03-01T00:41:22;1.90;99.90
23100;DHT22;53791;50.696;4.396;2023-03-01T00:43:50;1.80;99.90
23100;DHT22;53791;50.696;4.396;2023-03-01T00:46:20;1.80;99.90
23100;DHT22;53791;50.696;4.396;2023-03-01T00:48:48;1.80;99.90
23100;DHT22;53791;50.696;4.396;2023-03-01T00:51:18;1.60;99.90
23100;DHT22;53791;50.696;4.396;2023-03-01T00:53:46;1.60;99.90
23100;DHT22;53791;50.696;4.396;2023-03-01T00:56:15;1.60;99.90
23100;DHT22;53791;50.696;4.396;2023-03-01T00:58:42;1.60;99.90
23100;DHT22;53791;50.696;4.396;2023-03-01T01:01:13;1.60;99.90
23100;DHT22;53791;50.696;4.396;2023-03-01T01:03:56;1.40;99.90
23100;DHT22;53791;50.696;4.396;2023-03-01T01:06:30;1.40;99.90
23100;DHT22;53791;50.696;4.396;2023-03-01T01:08:58;1.30;99.90
23100;DHT22;53791;50.696;4.396;2023-03-01T01:11:27;1.20;99.90
23100;DHT22;53791;50.696;4.396;2023-03-01T01:13:55;1.20;99.90
23100;DHT22;53791;50.696;4.396;2023-03-01T01:16:25;1.20;99.90
23100;DHT22;53791;50.696;4.396;2023-03-01T01:18:53;1.20;99.90
23100;DHT22;53791;50.696;4.396;2023-03-01T01:21:22;1.10;99.90
23100;DHT22;53791;50.696;4.396;2023-03-01T01:23:51;1.10;99.90
23100;DHT22;53791;50.696;4.396;2023-03-01T01:26:21;1.10;99.90
23100;DHT22;53791;50.696;4.396;2023-03-01T01:28:51;1.10;99.90
23100;DHT22;53791;50.696;4.396;2023-03-01T01:31:19;1.20;99.90
23100;DHT22;53791;50.696;4.396;2023-03-01T01:33:46;1.30;99.90
23100;DHT22;53791;50.696;4.396;2023-03-01T01:36:14;1.20;99.90
23100;DHT22;53791;50.696;4.396;2023-03-01T01:38:42;1.10;99.90
23100;DHT22;53791;50.696;4.396;2023-03-01T01:41:10;1.00;99.90
23100;DHT22;53791;50.696;4.396;2023-03-01T01:46:28;0.90;99.90
23100;DHT22;53791;50.696;4.396;2023-03-01T01:49:00;1.00;99.90
23100;DHT22;53791;50.696;4.396;2023-03-01T01:51:37;0.90;99.90
23100;DHT22;53791;50.696;4.396;2023-03-01T01:54:03;0.80;99.90
23100;DHT22;53791;50.696;4.396;2023-03-01T01:56:32;0.80;99.90
23100;DHT22;53791;50.696;4.396;2023-03-01T01:58:59;0.80;99.90
23100;DHT22;53791;50.696;4.396;2023-03-01T02:01:28;0.90;99.90
23100;DHT22;53791;50.696;4.396;2023-03-01T02:03:56;0.90;99.90
23100;DHT22;53791;50.696;4.396;2023-03-01T02:06:29;0.90;99.90
23100;DHT22;53791;50.696;4.396;2023-03-01T02:09:03;1.00;99.90
23100;DHT22;53791;50.696;4.396;2023-03-01T02:11:31;0.90;99.90
23100;DHT22;53791;50.696;4.396;2023-03-01T02:14:00;0.90;99.90
23100;DHT22;53791;50.696;4.396;2023-03-01T02:16:27;1.00;99.90
23100;DHT22;53791;50.696;4.396;2023-03-01T02:18:55;1.00;99.90
23100;DHT22;53791;50.696;4.396;2023-03-01T02:21:38;0.90;99.90
23100;DHT22;53791;50.696;4.396;2023-03-01T02:26:42;1.00;99.90
23100;DHT22;53791;50.696;4.396;2023-03-01T02:29:09;0.90;99.90
23100;DHT22;53791;50.696;4.396;2023-03-01T02:31:36;0.80;99.90
23100;DHT22;53791;50.696;4.396;2023-03-01T02:34:14;0.90;99.90
23100;DHT22;53791;50.696;4.396;2023-03-01T02:36:49;0.90;99.90
23100;DHT22;53791;50.696;4.396;2023-03-01T02:39:15;0.80;99.90
23100;DHT22;53791;50.696;4.396;2023-03-01T02:41:51;0.90;99.90
23100;DHT22;53791;50.696;4.396;2023-03-01T02:44:20;0.80;99.90
23100;DHT22;53791;50.696;4.396;2023-03-01T02:46:50;0.80;99.90
23100;DHT22;53791;50.696;4.396;2023-03-01T02:49:32;0.80;99.90
23100;DHT22;53791;50.696;4.396;2023-03-01T02:55:04;0.70;99.90
23100;DHT22;53791;50.696;4.396;2023-03-01T02:57:23;0.70;99.90
23100;DHT22;53791;50.696;4.396;2023-03-01T02:59:54;0.70;99.90
23100;DHT22;53791;50.696;4.396;2023-03-01T03:02:28;0.70;99.90
23100;DHT22;53791;50.696;4.396;2023-03-01T03:05:22;0.70;99.90
23100;DHT22;53791;50.696;4.396;2023-03-01T03:07:50;0.70;99.90
23100;DHT22;53791;50.696;4.396;2023-03-01T03:10:21;0.80;99.90
23100;DHT22;53791;50.696;4.396;2023-03-01T03:12:58;0.80;99.90
23100;DHT22;53791;50.696;4.396;2023-03-01T03:15:23;0.70;99.90
23100;DHT22;53791;50.696;4.396;2023-03-01T03:17:51;0.70;99.90
23100;DHT22;53791;50.696;4.396;2023-03-01T03:20:21;0.60;99.90
23100;DHT22;53791;50.696;4.396;2023-03-01T03:22:51;0.50;99.90
23100;DHT22;53791;50.696;4.396;2023-03-01T03:25:20;0.50;99.90
23100;DHT22;53791;50.696;4.396;2023-03-01T03:27:50;0.60;99.90
23100;DHT22;53791;50.696;4.396;2023-03-01T03:30:19;0.70;99.90
23100;DHT22;53791;50.696;4.396;2023-03-01T03:32:48;0.60;99.90
23100;DHT22;53791;50.696;4.396;2023-03-01T03:35:27;0.50;99.90
23100;DHT22;53791;50.696;4.396;2023-03-01T03:37:58;0.50;99.90
23100;DHT22;53791;50.696;4.396;2023-03-01T03:40:31;0.50;99.90
23100;DHT22;53791;50.696;4.396;2023-03-01T03:42:59;0.40;99.90
23100;DHT22;53791;50.696;4.396;2023-03-01T03:45:26;0.40;99.90
23100;DHT22;53791;50.696;4.396;2023-03-01T03:47:54;0.40;99.90
23100;DHT22;53791;50.696;4.396;2023-03-01T03:50:21;0.40;99.90
23100;DHT22;53791;50.696;4.396;2023-03-01T03:52:49;0.40;99.90
23100;DHT22;53791;50.696;4.396;2023-03-01T03:55:17;0.40;99.90
23100;DHT22;53791;50.696;4.396;2023-03-01T03:57:47;0.40;99.90
23100;DHT22;53791;50.696;4.396;2023-03-01T04:00:21;0.30;99.90
23100;DHT22;53791;50.696;4.396;2023-03-01T04:02:50;0.30;99.90
23100;DHT22;53791;50.696;4.396;2023-03-01T04:05:20;0.40;99.90
23100;DHT22;53791;50.696;4.396;2023-03-01T04:07:47;0.40;99.90
23100;DHT22;53791;50.696;4.396;2023-03-01T04:10:17;0.30;99.90
23100;DHT22;53791;50.696;4.396;2023-03-01T04:12:44;0.30;99.90
23100;DHT22;53791;50.696;4.396;2023-03-01T04:15:12;0.40;99.90
23100;DHT22;53791;50.696;4.396;2023-03-01T04:17:40;0.40;99.90
23100;DHT22;53791;50.696;4.396;2023-03-01T04:20:10;0.40;99.90
23100;DHT22;53791;50.696;4.396;2023-03-01T04:22:39;0.30;99.90
23100;DHT22;53791;50.696;4.396;2023-03-01T04:25:07;0.30;99.90
23100;DHT22;53791;50.696;4.396;2023-03-01T04:27:35;0.30;99.90
23100;DHT22;53791;50.696;4.396;2023-03-01T04:30:04;0.40;99.90
23100;DHT22;53791;50.696;4.396;2023-03-01T04:32:31;0.50;99.90
23100;DHT22;53791;50.696;4.396;2023-03-01T04:34:59;0.50;99.90
23100;DHT22;53791;50.696;4.396;2023-03-01T04:37:27;0.50;99.90
23100;DHT22;53791;50.696;4.396;2023-03-01T04:39:56;0.40;99.90
23100;DHT22;53791;50.696;4.396;2023-03-01T04:42:23;0.40;99.90
23100;DHT22;53791;50.696;4.396;2023-03-01T04:44:51;0.30;99.90
23100;DHT22;53791;50.696;4.396;2023-03-01T04:47:18;0.30;99.90
23100;DHT22;53791;50.696;4.396;2023-03-01T04:49:46;0.20;99.90
23100;DHT22;53791;50.696;4.396;2023-03-01T04:52:13;0.10;99.90
23100;DHT22;53791;50.696;4.396;2023-03-01T04:54:41;0.10;99.90
23100;DHT22;53791;50.696;4.396;2023-03-01T04:57:09;0.10;99.90
23100;DHT22;53791;50.696;4.396;2023-03-01T04:59:37;0.20;99.90
23100;DHT22;53791;50.696;4.396;2023-03-01T05:02:04;0.20;99.90
23100;DHT22;53791;50.696;4.396;2023-03-01T05:04:32;0.20;99.90
23100;DHT22;53791;50.696;4.396;2023-03-01T05:06:59;0.10;99.90
23100;DHT22;53791;50.696;4.396;2023-03-01T05:09:27;0.10;99.90
23100;DHT22;53791;50.696;4.396;2023-03-01T05:11:54;0.10;99.90
23100;DHT22;53791;50.696;4.396;2023-03-01T05:14:22;0.00;99.90
23100;DHT22;53791;50.696;4.396;2023-03-01T05:16:49;0.00;99.90
23100;DHT22;53791;50.696;4.396;2023-03-01T05:19:17;-0.10;99.90
23100;DHT22;53791;50.696;4.396;2023-03-01T05:21:46;-0.20;99.90
23100;DHT22;53791;50.696;4.396;2023-03-01T05:24:32;-0.20;99.90
23100;DHT22;53791;50.696;4.396;2023-03-01T05:27:01;-0.20;99.90
23100;DHT22;53791;50.696;4.396;2023-03-01T05:29:31;0.00;99.90
23100;DHT22;53791;50.696;4.396;2023-03-01T05:32:01;-0.10;99.90
23100;DHT22;53791;50.696;4.396;2023-03-01T05:34:33;-0.20;99.90
23100;DHT22;53791;50.696;4.396;2023-03-01T05:37:00;-0.20;99.90
23100;DHT22;53791;50.696;4.396;2023-03-01T05:39:29;-0.20;99.90
23100;DHT22;53791;50.696;4.396;2023-03-01T05:41:58;-0.20;99.90
23100;DHT22;53791;50.696;4.396;2023-03-01T05:44:27;-0.20;99.90
23100;DHT22;53791;50.696;4.396;2023-03-01T05:46:55;-0.20;99.90
23100;DHT22;53791;50.696;4.396;2023-03-01T05:49:23;-0.20;99.90
23100;DHT22;53791;50.696;4.396;2023-03-01T05:51:52;-0.20;99.90
23100;DHT22;53791;50.696;4.396;2023-03-01T05:54:21;-0.10;99.90
23100;DHT22;53791;50.696;4.396;2023-03-01T05:56:49;-0.20;99.90
23100;DHT22;53791;50.696;4.396;2023-03-01T05:59:16;-0.20;99.90
23100;DHT22;53791;50.696;4.396;2023-03-01T06:01:44;-0.20;99.90
23100;DHT22;53791;50.696;4.396;2023-03-01T06:04:11;-0.20;99.90
23100;DHT22;53791;50.696;4.396;2023-03-01T06:06:39;-0.30;99.90
23100;DHT22;53791;50.696;4.396;2023-03-01T06:09:07;-0.40;99.90
23100;DHT22;53791;50.696;4.396;2023-03-01T06:11:37;-0.30;99.90
23100;DHT22;53791;50.696;4.396;2023-03-01T06:14:05;-0.20;99.90
23100;DHT22;53791;50.696;4.396;2023-03-01T06:16:34;-0.20;99.90
23100;DHT22;53791;50.696;4.396;2023-03-01T06:19:01;-0.20;99.90
23100;DHT22;53791;50.696;4.396;2023-03-01T06:21:29;-0.30;99.90
23100;DHT22;53791;50.696;4.396;2023-03-01T06:23:56;-0.30;99.90
23100;DHT22;53791;50.696;4.396;2023-03-01T06:26:24;-0.30;99.90
23100;DHT22;53791;50.696;4.396;2023-03-01T06:28:51;-0.30;99.90
23100;DHT22;53791;50.696;4.396;2023-03-01T06:31:19;-0.30;99.90
23100;DHT22;53791;50.696;4.396;2023-03-01T06:33:46;-0.40;99.90
23100;DHT22;53791;50.696;4.396;2023-03-01T06:36:14;-0.30;99.90
23100;DHT22;53791;50.696;4.396;2023-03-01T06:38:43;-0.30;99.90
23100;DHT22;53791;50.696;4.396;2023-03-01T06:41:10;-0.40;99.90
23100;DHT22;53791;50.696;4.396;2023-03-01T06:43:40;-0.40;99.90
23100;DHT22;53791;50.696;4.396;2023-03-01T06:46:07;-0.30;99.90
23100;DHT22;53791;50.696;4.396;2023-03-01T06:48:35;-0.30;99.90
23100;DHT22;53791;50.696;4.396;2023-03-01T06:51:02;-0.30;99.90
23100;DHT22;53791;50.696;4.396;2023-03-01T06:53:30;-0.30;99.90
23100;DHT22;53791;50.696;4.396;2023-03-01T06:55:58;-0.30;99.90
23100;DHT22;53791;50.696;4.396;2023-03-01T06:58:30;-0.20;99.90
23100;DHT22;53791;50.696;4.396;2023-03-01T07:00:57;-0.20;99.90
23100;DHT22;53791;50.696;4.396;2023-03-01T07:03:25;-0.10;99.90
23100;DHT22;53791;50.696;4.396;2023-03-01T07:05:52;0.00;99.90
23100;DHT22;53791;50.696;4.396;2023-03-01T07:08:22;0.30;99.90
23100;DHT22;53791;50.696;4.396;2023-03-01T07:10:59;0.60;99.90
23100;DHT22;53791;50.696;4.396;2023-03-01T07:13:28;1.00;99.90
23100;DHT22;53791;50.696;4.396;2023-03-01T07:15:56;1.40;99.90
23100;DHT22;53791;50.696;4.396;2023-03-01T07:18:23;1.70;99.90
23100;DHT22;53791;50.696;4.396;2023-03-01T07:20:51;2.00;99.90
23100;DHT22;53791;50.696;4.396;2023-03-01T07:23:19;2.30;99.90
23100;DHT22;53791;50.696;4.396;2023-03-01T07:25:54;2.60;99.90
23100;DHT22;53791;50.696;4.396;2023-03-01T07:28:25;3.00;99.90
23100;DHT22;53791;50.696;4.396;2023-03-01T07:30:54;3.30;99.90
23100;DHT22;53791;50.696;4.396;2023-03-01T07:33:21;3.50;99.90
23100;DHT22;53791;50.696;4.396;2023-03-01T07:35:55;3.80;99.90
23100;DHT22;53791;50.696;4.396;2023-03-01T07:38:20;4.10;99.90
23100;DHT22;53791;50.696;4.396;2023-03-01T07:40:47;4.40;99.90
23100;DHT22;53791;50.696;4.396;2023-03-01T07:43:15;4.50;99.90
23100;DHT22;53791;50.696;4.396;2023-03-01T07:45:44;4.70;99.90
23100;DHT22;53791;50.696;4.396;2023-03-01T07:48:11;5.00;99.90
23100;DHT22;53791;50.696;4.396;2023-03-01T07:50:39;5.10;99.90
23100;DHT22;53791;50.696;4.396;2023-03-01T07:53:06;5.30;99.90
23100;DHT22;53791;50.696;4.396;2023-03-01T07:55:36;5.50;99.90
23100;DHT22;53791;50.696;4.396;2023-03-01T07:58:03;5.70;99.90
23100;DHT22;53791;50.696;4.396;2023-03-01T08:00:31;5.90;99.90
23100;DHT22;53791;50.696;4.396;2023-03-01T08:03:01;5.90;99.90
23100;DHT22;53791;50.696;4.396;2023-03-01T08:05:29;6.00;99.90
23100;DHT22;53791;50.696;4.396;2023-03-01T08:07:56;6.00;99.90
23100;DHT22;53791;50.696;4.396;2023-03-01T08:10:25;6.10;99.90
23100;DHT22;53791;50.696;4.396;2023-03-01T08:12:52;6.20;99.90
23100;DHT22;53791;50.696;4.396;2023-03-01T08:15:20;6.40;99.90
23100;DHT22;53791;50.696;4.396;2023-03-01T08:17:49;6.40;99.90
23100;DHT22;53791;50.696;4.396;2023-03-01T08:20:17;6.50;99.90
23100;DHT22;53791;50.696;4.396;2023-03-01T08:22:44;6.70;99.90
23100;DHT22;53791;50.696;4.396;2023-03-01T08:25:12;6.70;99.90
23100;DHT22;53791;50.696;4.396;2023-03-01T08:27:39;6.60;99.90
23100;DHT22;53791;50.696;4.396;2023-03-01T08:30:07;6.60;99.90
23100;DHT22;53791;50.696;4.396;2023-03-01T08:32:39;6.50;99.90
23100;DHT22;53791;50.696;4.396;2023-03-01T08:35:07;6.50;99.90
23100;DHT22;53791;50.696;4.396;2023-03-01T08:37:35;6.60;99.90
23100;DHT22;53791;50.696;4.396;2023-03-01T08:40:04;6.60;99.90
23100;DHT22;53791;50.696;4.396;2023-03-01T08:42:33;6.40;99.90
23100;DHT22;53791;50.696;4.396;2023-03-01T08:45:01;6.50;99.90
23100;DHT22;53791;50.696;4.396;2023-03-01T08:47:28;6.60;99.90
23100;DHT22;53791;50.696;4.396;2023-03-01T08:49:56;6.60;99.90
23100;DHT22;53791;50.696;4.396;2023-03-01T08:52:23;6.90;99.90
23100;DHT22;53791;50.696;4.396;2023-03-01T08:54:51;7.40;99.90
23100;DHT22;53791;50.696;4.396;2023-03-01T08:57:19;7.70;99.90
23100;DHT22;53791;50.696;4.396;2023-03-01T08:59:46;7.90;99.90
23100;DHT22;53791;50.696;4.396;2023-03-01T09:02:18;8.20;99.90
23100;DHT22;53791;50.696;4.396;2023-03-01T09:04:46;8.20;99.90
23100;DHT22;53791;50.696;4.396;2023-03-01T09:07:14;8.20;99.90
23100;DHT22;53791;50.696;4.396;2023-03-01T09:09:41;8.30;99.90
23100;DHT22;53791;50.696;4.396;2023-03-01T09:12:09;8.50;99.90
23100;DHT22;53791;50.696;4.396;2023-03-01T09:14:37;8.10;99.90
23100;DHT22;53791;50.696;4.396;2023-03-01T09:17:05;8.50;99.90
23100;DHT22;53791;50.696;4.396;2023-03-01T09:19:32;8.60;99.90
23100;DHT22;53791;50.696;4.396;2023-03-01T09:22:00;8.60;99.90
23100;DHT22;53791;50.696;4.396;2023-03-01T09:24:27;8.70;99.90
23100;DHT22;53791;50.696;4.396;2023-03-01T09:26:56;8.90;99.90
23100;DHT22;53791;50.696;4.396;2023-03-01T09:29:23;9.00;99.90
23100;DHT22;53791;50.696;4.396;2023-03-01T09:31:52;9.10;99.90
23100;DHT22;53791;50.696;4.396;2023-03-01T09:34:22;9.40;99.90
23100;DHT22;53791;50.696;4.396;2023-03-01T09:36:50;9.50;99.90
23100;DHT22;53791;50.696;4.396;2023-03-01T09:39:18;9.80;99.90
23100;DHT22;53791;50.696;4.396;2023-03-01T09:41:58;10.00;99.90
23100;DHT22;53791;50.696;4.396;2023-03-01T09:44:33;10.10;99.90
23100;DHT22;53791;50.696;4.396;2023-03-01T09:47:00;10.40;99.90
23100;DHT22;53791;50.696;4.396;2023-03-01T09:49:35;10.70;99.90
23100;DHT22;53791;50.696;4.396;2023-03-01T09:52:20;10.90;99.90
23100;DHT22;53791;50.696;4.396;2023-03-01T09:54:49;10.50;99.90
23100;DHT22;53791;50.696;4.396;2023-03-01T09:57:19;10.60;99.90
23100;DHT22;53791;50.696;4.396;2023-03-01T10:00:00;10.90;99.90
23100;DHT22;53791;50.696;4.396;2023-03-01T10:02:48;10.80;99.90
23100;DHT22;53791;50.696;4.396;2023-03-01T10:05:14;10.90;99.90
23100;DHT22;53791;50.696;4.396;2023-03-01T10:08:00;11.00;99.90
23100;DHT22;53791;50.696;4.396;2023-03-01T10:10:34;10.60;99.90
23100;DHT22;53791;50.696;4.396;2023-03-01T10:13:13;10.50;99.90
23100;DHT22;53791;50.696;4.396;2023-03-01T10:15:44;10.00;99.90
23100;DHT22;53791;50.696;4.396;2023-03-01T10:18:16;10.10;99.90
23100;DHT22;53791;50.696;4.396;2023-03-01T10:23:22;9.60;99.90
23100;DHT22;53791;50.696;4.396;2023-03-01T10:26:21;9.90;99.90
23100;DHT22;53791;50.696;4.396;2023-03-01T10:29:06;9.90;99.90
23100;DHT22;53791;50.696;4.396;2023-03-01T10:31:37;9.80;99.90
23100;DHT22;53791;50.696;4.396;2023-03-01T10:34:28;9.90;99.90
23100;DHT22;53791;50.696;4.396;2023-03-01T10:37:13;10.10;99.90
23100;DHT22;53791;50.696;4.396;2023-03-01T10:40:08;10.10;99.90
23100;DHT22;53791;50.696;4.396;2023-03-01T10:42:46;10.20;99.90
23100;DHT22;53791;50.696;4.396;2023-03-01T10:45:26;10.10;99.90
23100;DHT22;53791;50.696;4.396;2023-03-01T10:48:02;10.30;99.90
23100;DHT22;53791;50.696;4.396;2023-03-01T10:50:22;10.70;99.90
23100;DHT22;53791;50.696;4.396;2023-03-01T10:52:58;10.80;99.90
23100;DHT22;53791;50.696;4.396;2023-03-01T10:55:37;10.80;99.90
23100;DHT22;53791;50.696;4.396;2023-03-01T10:58:16;10.60;99.90
23100;DHT22;53791;50.696;4.396;2023-03-01T11:00:51;10.10;99.90
23100;DHT22;53791;50.696;4.396;2023-03-01T11:03:23;9.90;99.90
23100;DHT22;53791;50.696;4.396;2023-03-01T11:06:01;10.00;99.90
23100;DHT22;53791;50.696;4.396;2023-03-01T11:08:40;9.90;99.90
23100;DHT22;53791;50.696;4.396;2023-03-01T11:11:17;9.80;99.90
23100;DHT22;53791;50.696;4.396;2023-03-01T11:14:03;9.70;99.90
23100;DHT22;53791;50.696;4.396;2023-03-01T11:16:38;10.00;99.90
23100;DHT22;53791;50.696;4.396;2023-03-01T11:19:16;10.60;99.90
23100;DHT22;53791;50.696;4.396;2023-03-01T11:24:49;11.00;99.90
23100;DHT22;53791;50.696;4.396;2023-03-01T11:27:22;10.60;99.90
23100;DHT22;53791;50.696;4.396;2023-03-01T11:29:58;10.30;99.90
23100;DHT22;53791;50.696;4.396;2023-03-01T11:32:20;9.80;99.90
23100;DHT22;53791;50.696;4.396;2023-03-01T11:34:53;9.80;99.90
23100;DHT22;53791;50.696;4.396;2023-03-01T11:37:40;9.50;99.90
23100;DHT22;53791;50.696;4.396;2023-03-01T11:40:33;9.70;99.90
23100;DHT22;53791;50.696;4.396;2023-03-01T11:43:26;9.70;99.90
23100;DHT22;53791;50.696;4.396;2023-03-01T11:45:59;9.40;99.90
23100;DHT22;53791;50.696;4.396;2023-03-01T11:48:34;9.30;99.90
23100;DHT22;53791;50.696;4.396;2023-03-01T11:51:02;8.90;99.90
23100;DHT22;53791;50.696;4.396;2023-03-01T11:53:56;8.70;99.90
23100;DHT22;53791;50.696;4.396;2023-03-01T11:56:38;8.40;99.90
23100;DHT22;53791;50.696;4.396;2023-03-01T11:59:23;8.50;99.90
23100;DHT22;53791;50.696;4.396;2023-03-01T12:07:41;9.70;99.90
23100;DHT22;53791;50.696;4.396;2023-03-01T12:10:32;9.90;99.90
23100;DHT22;53791;50.696;4.396;2023-03-01T12:18:41;9.80;99.90
23100;DHT22;53791;50.696;4.396;2023-03-01T12:23:58;10.20;99.90
23100;DHT22;53791;50.696;4.396;2023-03-01T12:26:34;10.20;99.90
23100;DHT22;53791;50.696;4.396;2023-03-01T12:29:18;10.30;99.90
23100;DHT22;53791;50.696;4.396;2023-03-01T12:34:53;10.20;99.90
23100;DHT22;53791;50.696;4.396;2023-03-01T12:40:17;10.50;99.90
23100;DHT22;53791;50.696;4.396;2023-03-01T12:43:05;10.60;99.90
23100;DHT22;53791;50.696;4.396;2023-03-01T12:46:00;10.00;99.90
23100;DHT22;53791;50.696;4.396;2023-03-01T12:48:39;10.10;99.90
23100;DHT22;53791;50.696;4.396;2023-03-01T12:51:10;10.10;99.90
23100;DHT22;53791;50.696;4.396;2023-03-01T12:53:44;10.10;99.90
23100;DHT22;53791;50.696;4.396;2023-03-01T12:56:09;10.40;99.90
23100;DHT22;53791;50.696;4.396;2023-03-01T13:01:19;11.00;99.90
23100;DHT22;53791;50.696;4.396;2023-03-01T13:04:18;11.00;99.90
23100;DHT22;53791;50.696;4.396;2023-03-01T13:07:04;11.20;99.90
23100;DHT22;53791;50.696;4.396;2023-03-01T13:12:46;11.40;99.90
23100;DHT22;53791;50.696;4.396;2023-03-01T13:15:31;11.30;99.90
23100;DHT22;53791;50.696;4.396;2023-03-01T13:18:02;11.40;99.90
23100;DHT22;53791;50.696;4.396;2023-03-01T13:20:56;11.60;99.90
23100;DHT22;53791;50.696;4.396;2023-03-01T13:23:22;11.80;99.90
23100;DHT22;53791;50.696;4.396;2023-03-01T13:28:50;11.70;99.90
23100;DHT22;53791;50.696;4.396;2023-03-01T13:33:53;11.80;99.90
23100;DHT22;53791;50.696;4.396;2023-03-01T13:39:00;12.00;99.90
23100;DHT22;53791;50.696;4.396;2023-03-01T13:41:50;12.10;99.90
23100;DHT22;53791;50.696;4.396;2023-03-01T13:46:58;12.70;99.90
23100;DHT22;53791;50.696;4.396;2023-03-01T13:49:28;12.80;99.90
23100;DHT22;53791;50.696;4.396;2023-03-01T13:51:59;13.10;99.90
23100;DHT22;53791;50.696;4.396;2023-03-01T13:54:31;13.40;99.90
23100;DHT22;53791;50.696;4.396;2023-03-01T13:57:00;13.60;99.90
23100;DHT22;53791;50.696;4.396;2023-03-01T13:59:28;13.70;99.90
23100;DHT22;53791;50.696;4.396;2023-03-01T14:01:58;13.90;99.90
23100;DHT22;53791;50.696;4.396;2023-03-01T14:04:29;13.80;99.90
23100;DHT22;53791;50.696;4.396;2023-03-01T14:07:17;13.60;99.90
23100;DHT22;53791;50.696;4.396;2023-03-01T14:09:42;13.60;99.90
23100;DHT22;53791;50.696;4.396;2023-03-01T14:15:01;13.50;99.90
23100;DHT22;53791;50.696;4.396;2023-03-01T14:17:33;13.40;99.90
23100;DHT22;53791;50.696;4.396;2023-03-01T14:20:16;13.30;99.90
23100;DHT22;53791;50.696;4.396;2023-03-01T14:22:43;12.90;99.90
23100;DHT22;53791;50.696;4.396;2023-03-01T14:25:29;13.00;99.90
23100;DHT22;53791;50.696;4.396;2023-03-01T14:27:58;13.10;99.90
23100;DHT22;53791;50.696;4.396;2023-03-01T14:30:40;13.20;99.90
23100;DHT22;53791;50.696;4.396;2023-03-01T14:33:00;13.00;99.90
23100;DHT22;53791;50.696;4.396;2023-03-01T14:35:30;12.40;99.90
23100;DHT22;53791;50.696;4.396;2023-03-01T14:38:00;12.00;99.90
23100;DHT22;53791;50.696;4.396;2023-03-01T14:40:33;11.70;99.90
23100;DHT22;53791;50.696;4.396;2023-03-01T14:43:08;11.50;99.90
23100;DHT22;53791;50.696;4.396;2023-03-01T14:45:31;11.20;99.90
23100;DHT22;53791;50.696;4.396;2023-03-01T14:48:02;11.30;99.90
23100;DHT22;53791;50.696;4.396;2023-03-01T14:50:32;11.50;99.90
23100;DHT22;53791;50.696;4.396;2023-03-01T14:53:03;11.50;99.90
23100;DHT22;53791;50.696;4.396;2023-03-01T14:55:34;11.50;99.90
23100;DHT22;53791;50.696;4.396;2023-03-01T14:58:08;11.50;99.90
23100;DHT22;53791;50.696;4.396;2023-03-01T15:00:35;11.70;99.90
23100;DHT22;53791;50.696;4.396;2023-03-01T15:03:07;11.80;99.90
23100;DHT22;53791;50.696;4.396;2023-03-01T15:05:41;11.80;99.90
23100;DHT22;53791;50.696;4.396;2023-03-01T15:08:16;11.70;99.90
23100;DHT22;53791;50.696;4.396;2023-03-01T15:10:40;11.70;99.90
23100;DHT22;53791;50.696;4.396;2023-03-01T15:13:19;11.70;99.90
23100;DHT22;53791;50.696;4.396;2023-03-01T15:15:44;11.70;99.90
23100;DHT22;53791;50.696;4.396;2023-03-01T15:18:20;11.60;99.90
23100;DHT22;53791;50.696;4.396;2023-03-01T15:20:44;11.60;99.90
23100;DHT22;53791;50.696;4.396;2023-03-01T15:25:50;11.60;99.90
23100;DHT22;53791;50.696;4.396;2023-03-01T15:28:20;11.90;99.90
23100;DHT22;53791;50.696;4.396;2023-03-01T15:30:53;12.00;99.90
23100;DHT22;53791;50.696;4.396;2023-03-01T15:33:35;12.30;99.90
23100;DHT22;53791;50.696;4.396;2023-03-01T15:38:59;12.80;99.90
23100;DHT22;53791;50.696;4.396;2023-03-01T15:41:32;12.80;99.90
23100;DHT22;53791;50.696;4.396;2023-03-01T15:44:13;12.90;99.90
23100;DHT22;53791;50.696;4.396;2023-03-01T15:46:35;12.80;99.90
23100;DHT22;53791;50.696;4.396;2023-03-01T15:49:06;12.90;99.90
23100;DHT22;53791;50.696;4.396;2023-03-01T15:51:36;12.60;99.90
23100;DHT22;53791;50.696;4.396;2023-03-01T15:54:19;12.20;99.90
23100;DHT22;53791;50.696;4.396;2023-03-01T15:56:43;12.10;99.90
23100;DHT22;53791;50.696;4.396;2023-03-01T15:59:12;12.00;99.90
23100;DHT22;53791;50.696;4.396;2023-03-01T16:01:41;12.00;99.90
23100;DHT22;53791;50.696;4.396;2023-03-01T16:04:11;11.90;99.90
23100;DHT22;53791;50.696;4.396;2023-03-01T16:06:40;11.90;99.90
23100;DHT22;53791;50.696;4.396;2023-03-01T16:09:09;11.90;99.90
23100;DHT22;53791;50.696;4.396;2023-03-01T16:11:38;11.50;99.90
23100;DHT22;53791;50.696;4.396;2023-03-01T16:14:08;11.10;99.90
23100;DHT22;53791;50.696;4.396;2023-03-01T16:16:36;11.10;99.90
23100;DHT22;53791;50.696;4.396;2023-03-01T16:19:04;10.80;99.90
23100;DHT22;53791;50.696;4.396;2023-03-01T16:21:32;10.50;99.90
23100;DHT22;53791;50.696;4.396;2023-03-01T16:24:00;10.10;99.90
23100;DHT22;53791;50.696;4.396;2023-03-01T16:26:27;10.00;99.90
23100;DHT22;53791;50.696;4.396;2023-03-01T16:28:56;9.90;99.90
23100;DHT22;53791;50.696;4.396;2023-03-01T16:31:27;9.90;99.90
23100;DHT22;53791;50.696;4.396;2023-03-01T16:33:57;9.80;99.90
23100;DHT22;53791;50.696;4.396;2023-03-01T16:36:26;9.80;99.90
23100;DHT22;53791;50.696;4.396;2023-03-01T16:38:56;9.80;99.90
23100;DHT22;53791;50.696;4.396;2023-03-01T16:41:27;9.60;99.90
23100;DHT22;53791;50.696;4.396;2023-03-01T16:43:55;9.70;99.90
23100;DHT22;53791;50.696;4.396;2023-03-01T16:46:25;9.50;99.90
23100;DHT22;53791;50.696;4.396;2023-03-01T16:48:54;9.50;99.90
23100;DHT22;53791;50.696;4.396;2023-03-01T16:51:23;9.40;99.90
23100;DHT22;53791;50.696;4.396;2023-03-01T16:53:51;9.30;99.90
23100;DHT22;53791;50.696;4.396;2023-03-01T16:56:22;9.00;99.90
23100;DHT22;53791;50.696;4.396;2023-03-01T16:58:51;8.70;99.90
23100;DHT22;53791;50.696;4.396;2023-03-01T17:01:20;8.40;99.90
23100;DHT22;53791;50.696;4.396;2023-03-01T17:03:49;8.20;99.90